Time;durP1;ratioP1;P1;durP2;ratioP2;P2;SDS_P1;SDS_P2;PMS_P1;PMS_P2;Temp;Humidity;BMP_temperature;BMP_pressure;BME280_temperature;BME280_humidity;BME280_pressure;Samples;Min_cycle;Max_cycle;Signal;HPM_P1;HPM_P2
2021/10/12 00:01:10;;;;;;;0.50;0.50;;;4.70;99.90;;;;;;5037574;28;20576;-70
2021/10/12 00:03:35;;;;;;;0.60;0.60;;;4.70;99.90;;;;;;5047357;28;20217;-70
2021/10/12 00:06:01;;;;;;;0.68;0.68;;;4.70;99.90;;;;;;5038182;28;20575;-70
2021/10/12 00:08:27;;;;;;;0.40;0.40;;;4.60;99.90;;;;;;5055389;28;20259;-70
2021/10/12 00:10:53;;;;;;;0.52;0.52;;;4.60;99.90;;;;;;5055421;28;20209;-71
2021/10/12 00:13:19;;;;;;;0.73;0.73;;;4.60;99.90;;;;;;5046694;28;20600;-70
2021/10/12 00:15:45;;;;;;;0.70;0.70;;;4.50;99.90;;;;;;5045625;28;20197;-71
2021/10/12 00:18:10;;;;;;;0.55;0.55;;;4.30;99.90;;;;;;5048464;28;20550;-71
2021/10/12 00:20:36;;;;;;;0.65;0.65;;;4.30;99.90;;;;;;5021978;28;20220;-72
2021/10/12 00:23:05;;;;;;;0.70;0.70;;;4.20;99.90;;;;;;5052792;28;20209;-71
2021/10/12 00:25:30;;;;;;;0.50;0.50;;;4.20;99.90;;;;;;5035950;28;20290;-71
2021/10/12 00:27:56;;;;;;;0.60;0.60;;;4.10;99.90;;;;;;5053676;28;20622;-71
2021/10/12 00:30:22;;;;;;;0.63;0.63;;;4.10;99.90;;;;;;5052967;28;20237;-71
2021/10/12 00:32:47;;;;;;;1.00;1.00;;;4.00;99.90;;;;;;5055481;28;20559;-71
2021/10/12 00:35:13;;;;;;;0.70;0.70;;;3.90;99.90;;;;;;5055206;28;20209;-70
2021/10/12 00:37:39;;;;;;;1.98;1.75;;;3.80;99.90;;;;;;5020188;28;20214;-70
2021/10/12 00:40:05;;;;;;;0.70;0.70;;;3.70;99.90;;;;;;5038441;28;20206;-70
2021/10/12 00:42:31;;;;;;;0.70;0.70;;;3.60;99.90;;;;;;5054125;28;20580;-71
2021/10/12 00:44:57;;;;;;;0.60;0.60;;;3.50;99.90;;;;;;5053776;28;20212;-70
2021/10/12 00:47:22;;;;;;;0.60;0.60;;;3.40;99.90;;;;;;5053179;28;20629;-70
2021/10/12 00:49:48;;;;;;;0.60;0.60;;;3.40;99.90;;;;;;5053538;28;20255;-70
2021/10/12 00:52:14;;;;;;;0.73;0.73;;;3.40;99.90;;;;;;5052022;28;20209;-70
2021/10/12 00:54:41;;;;;;;0.65;0.65;;;3.40;99.90;;;;;;5044601;28;20268;-70
2021/10/12 00:57:07;;;;;;;0.70;0.70;;;3.50;99.90;;;;;;5045360;28;20668;-70
2021/10/12 00:59:35;;;;;;;0.60;0.60;;;3.60;99.90;;;;;;5047067;28;20664;-71
2021/10/12 01:02:02;;;;;;;0.65;0.65;;;3.50;99.90;;;;;;5041772;28;20660;-70
2021/10/12 01:04:28;;;;;;;0.65;0.65;;;3.50;99.90;;;;;;5054358;28;20209;-70
2021/10/12 01:06:54;;;;;;;0.50;0.50;;;3.50;99.90;;;;;;5052313;28;20196;-70
2021/10/12 01:09:20;;;;;;;0.57;0.57;;;3.50;99.90;;;;;;5053144;28;20631;-70
2021/10/12 01:11:47;;;;;;;0.50;0.50;;;3.60;99.90;;;;;;5052991;28;20202;-70
2021/10/12 01:14:12;;;;;;;0.60;0.60;;;3.60;99.90;;;;;;5052685;28;20212;-70
2021/10/12 01:16:38;;;;;;;0.65;0.65;;;3.60;99.90;;;;;;5052706;28;20209;-70
2021/10/12 01:19:06;;;;;;;0.63;0.63;;;3.60;99.90;;;;;;5017850;28;20214;-70
2021/10/12 01:21:41;;;;;;;0.60;0.60;;;3.70;99.90;;;;;;5035372;28;20202;-71
2021/10/12 01:24:08;;;;;;;0.60;0.60;;;3.70;99.90;;;;;;5051789;28;20197;-70
2021/10/12 01:26:35;;;;;;;0.60;0.60;;;3.70;99.90;;;;;;5053483;28;20193;-70
2021/10/12 01:29:02;;;;;;;0.70;0.70;;;3.70;99.90;;;;;;5053664;28;20668;-71
2021/10/12 01:31:28;;;;;;;0.80;0.80;;;3.70;99.90;;;;;;5053159;28;20628;-70
2021/10/12 01:33:54;;;;;;;0.77;0.77;;;3.70;99.90;;;;;;5035561;28;20209;-70
2021/10/12 01:36:21;;;;;;;0.60;0.60;;;3.70;99.90;;;;;;5035109;28;20209;-70
2021/10/12 01:38:47;;;;;;;0.60;0.60;;;3.70;99.90;;;;;;5035807;28;20259;-70
2021/10/12 01:41:14;;;;;;;0.70;0.70;;;3.80;99.90;;;;;;5052357;28;20621;-70
2021/10/12 01:43:39;;;;;;;0.70;0.70;;;3.70;99.90;;;;;;5051669;28;20615;-71
2021/10/12 01:46:07;;;;;;;0.70;0.70;;;3.80;99.90;;;;;;5053643;28;20201;-71
2021/10/12 01:48:34;;;;;;;0.57;0.57;;;3.70;99.90;;;;;;5052562;28;20233;-70
2021/10/12 01:51:00;;;;;;;0.60;0.60;;;3.70;99.90;;;;;;5053617;28;20228;-70
2021/10/12 01:53:26;;;;;;;0.77;0.77;;;3.70;99.90;;;;;;5035005;28;20217;-70
2021/10/12 01:55:52;;;;;;;0.47;0.47;;;3.70;99.90;;;;;;5051034;28;20205;-70
2021/10/12 01:58:17;;;;;;;0.77;0.77;;;3.70;99.90;;;;;;5029044;28;20202;-70
2021/10/12 02:00:43;;;;;;;0.65;0.65;;;3.60;99.90;;;;;;5022176;28;20217;-70
2021/10/12 02:03:09;;;;;;;0.65;0.65;;;3.60;99.90;;;;;;5035909;28;20232;-70
2021/10/12 02:05:35;;;;;;;0.60;0.60;;;3.70;99.90;;;;;;5051853;28;20348;-70
2021/10/12 02:08:00;;;;;;;0.65;0.65;;;3.70;99.90;;;;;;5052923;28;20236;-70
2021/10/12 02:10:26;;;;;;;0.70;0.70;;;3.80;99.90;;;;;;5052177;28;20209;-70
2021/10/12 02:12:52;;;;;;;0.52;0.52;;;3.80;99.90;;;;;;5053068;28;20205;-70
2021/10/12 02:15:18;;;;;;;0.60;0.60;;;3.80;99.90;;;;;;5052908;28;20197;-70
2021/10/12 02:17:44;;;;;;;0.70;0.70;;;3.80;99.90;;;;;;5018753;28;20241;-70
2021/10/12 02:20:10;;;;;;;0.68;0.68;;;3.80;99.90;;;;;;5052311;28;20204;-70
2021/10/12 02:22:38;;;;;;;0.50;0.50;;;3.90;99.90;;;;;;5036178;28;20672;-70
2021/10/12 02:25:05;;;;;;;0.60;0.60;;;3.80;99.90;;;;;;5050478;28;20267;-70
2021/10/12 02:27:31;;;;;;;0.60;0.60;;;3.90;99.90;;;;;;5034584;28;20688;-70
2021/10/12 02:29:57;;;;;;;0.60;0.60;;;3.90;99.90;;;;;;5053096;28;20201;-71
2021/10/12 02:32:23;;;;;;;0.60;0.60;;;3.90;99.90;;;;;;5050310;28;20251;-69
2021/10/12 02:34:48;;;;;;;0.40;0.40;;;3.90;99.90;;;;;;5040912;28;20620;-70
2021/10/12 02:37:14;;;;;;;0.68;0.68;;;3.90;99.90;;;;;;5048879;28;20201;-70
2021/10/12 02:39:40;;;;;;;0.60;0.60;;;3.90;99.90;;;;;;5042614;28;20213;-70
2021/10/12 02:42:06;;;;;;;0.52;0.52;;;3.90;99.90;;;;;;5043655;28;20205;-70
2021/10/12 02:44:32;;;;;;;0.63;0.63;;;3.90;99.90;;;;;;5051046;28;20201;-70
2021/10/12 02:46:57;;;;;;;0.60;0.60;;;3.90;99.90;;;;;;5052487;28;20229;-70
2021/10/12 02:49:23;;;;;;;0.50;0.50;;;3.90;99.90;;;;;;5051572;28;20205;-70
2021/10/12 02:51:49;;;;;;;0.70;0.70;;;4.00;99.90;;;;;;5051068;28;20201;-70
2021/10/12 02:54:14;;;;;;;0.60;0.60;;;4.00;99.90;;;;;;5034803;28;20201;-70
2021/10/12 02:56:40;;;;;;;0.60;0.60;;;4.00;99.90;;;;;;5034309;28;20209;-70
2021/10/12 02:59:06;;;;;;;0.63;0.63;;;4.00;99.90;;;;;;5050968;28;20193;-70
2021/10/12 03:01:32;;;;;;;0.60;0.60;;;4.00;99.90;;;;;;5050872;28;20232;-70
2021/10/12 03:03:58;;;;;;;0.55;0.55;;;4.10;99.90;;;;;;5021264;28;20232;-71
2021/10/12 03:06:23;;;;;;;0.60;0.60;;;4.10;99.90;;;;;;5031875;28;20217;-71
2021/10/12 03:08:49;;;;;;;0.40;0.40;;;4.20;99.90;;;;;;5032313;28;20573;-71
2021/10/12 03:11:15;;;;;;;0.50;0.50;;;4.10;99.90;;;;;;5031803;28;20224;-71
2021/10/12 03:13:41;;;;;;;0.60;0.60;;;4.20;99.90;;;;;;5031639;28;20268;-71
2021/10/12 03:16:10;;;;;;;0.60;0.60;;;4.20;99.90;;;;;;5032975;28;20202;-71
2021/10/12 03:18:37;;;;;;;0.60;0.60;;;4.20;99.90;;;;;;5030267;28;20209;-71
2021/10/12 03:21:03;;;;;;;0.80;0.80;;;4.20;99.90;;;;;;5018958;28;20216;-71
2021/10/12 03:23:29;;;;;;;0.65;0.65;;;4.20;99.90;;;;;;5031681;28;20627;-71
2021/10/12 03:25:55;;;;;;;0.70;0.70;;;4.20;99.90;;;;;;5034446;28;20281;-71
2021/10/12 03:28:21;;;;;;;0.68;0.68;;;4.20;99.90;;;;;;5033409;28;20201;-70
2021/10/12 03:30:47;;;;;;;0.45;0.45;;;4.20;99.90;;;;;;5039847;28;20198;-70
2021/10/12 03:33:19;;;;;;;0.60;0.60;;;4.20;99.90;;;;;;5040786;28;20248;-70
2021/10/12 03:35:56;;;;;;;0.60;0.60;;;4.20;99.90;;;;;;5032735;28;20288;-70
2021/10/12 03:38:24;;;;;;;0.60;0.60;;;4.20;99.90;;;;;;5031430;28;20206;-70
2021/10/12 03:40:50;;;;;;;0.60;0.60;;;4.10;99.90;;;;;;5034646;28;20661;-70
2021/10/12 03:43:17;;;;;;;0.60;0.60;;;4.20;99.90;;;;;;5035482;28;20198;-70
2021/10/12 03:45:43;;;;;;;0.70;0.70;;;4.20;99.90;;;;;;5033921;28;20201;-70
2021/10/12 03:48:08;;;;;;;0.70;0.70;;;4.10;99.90;;;;;;5030877;28;20653;-70
2021/10/12 03:50:34;;;;;;;0.60;0.60;;;4.10;99.90;;;;;;5035269;28;20578;-70
2021/10/12 03:53:00;;;;;;;0.52;0.52;;;4.10;99.90;;;;;;5035271;28;20210;-70
2021/10/12 03:55:26;;;;;;;0.60;0.60;;;4.10;99.90;;;;;;5035362;28;20214;-70
2021/10/12 03:57:52;;;;;;;0.60;0.60;;;4.00;99.90;;;;;;5035452;28;20220;-70
2021/10/12 04:00:18;;;;;;;0.50;0.50;;;4.00;99.90;;;;;;5035346;28;20801;-70
2021/10/12 04:02:44;;;;;;;0.73;0.73;;;4.00;99.90;;;;;;5027758;28;20558;-70
2021/10/12 04:05:09;;;;;;;0.68;0.68;;;4.00;99.90;;;;;;5035642;28;20260;-70
2021/10/12 04:07:35;;;;;;;0.77;0.77;;;4.00;99.90;;;;;;5033530;28;20198;-70
2021/10/12 04:10:01;;;;;;;0.60;0.60;;;3.90;99.90;;;;;;5032624;28;20202;-70
2021/10/12 04:12:26;;;;;;;0.65;0.65;;;3.90;99.90;;;;;;5033570;28;20202;-70
2021/10/12 04:14:52;;;;;;;0.70;0.70;;;3.90;99.90;;;;;;5023434;28;20211;-70
2021/10/12 04:17:18;;;;;;;0.63;0.63;;;3.80;99.90;;;;;;5027843;28;20210;-70
2021/10/12 04:19:43;;;;;;;0.50;0.50;;;3.80;99.90;;;;;;5024097;28;20352;-70
2021/10/12 04:22:09;;;;;;;0.60;0.60;;;3.70;99.90;;;;;;5025482;28;20210;-70
2021/10/12 04:24:36;;;;;;;0.60;0.60;;;3.70;99.90;;;;;;5034474;28;20277;-69
2021/10/12 04:27:03;;;;;;;0.60;0.60;;;3.60;99.90;;;;;;5032340;28;20221;-70
2021/10/12 04:29:30;;;;;;;0.65;0.65;;;3.60;99.90;;;;;;5033177;28;20198;-72
2021/10/12 04:31:56;;;;;;;0.60;0.60;;;3.40;99.90;;;;;;5028201;28;20207;-70
2021/10/12 04:34:22;;;;;;;0.60;0.60;;;3.30;99.90;;;;;;5021131;28;20576;-69
2021/10/12 04:36:48;;;;;;;0.60;0.60;;;3.40;99.90;;;;;;5033234;28;20209;-69
2021/10/12 04:39:14;;;;;;;0.60;0.60;;;3.30;99.90;;;;;;5031987;28;20213;-69
2021/10/12 04:41:39;;;;;;;0.60;0.60;;;3.30;99.90;;;;;;5031726;28;20569;-70
2021/10/12 04:44:09;;;;;;;0.60;0.60;;;3.30;99.90;;;;;;5033130;28;20230;-70
2021/10/12 04:46:36;;;;;;;0.60;0.60;;;3.40;99.90;;;;;;5015982;28;20213;-70
2021/10/12 04:49:03;;;;;;;0.70;0.70;;;3.30;99.90;;;;;;5033031;28;20286;-69
2021/10/12 04:51:28;;;;;;;0.60;0.60;;;3.40;99.90;;;;;;5030988;28;20214;-70
2021/10/12 04:53:54;;;;;;;0.73;0.73;;;3.30;99.90;;;;;;5033154;28;20576;-69
2021/10/12 04:56:20;;;;;;;0.60;0.60;;;3.30;99.90;;;;;;5034071;28;20202;-70
2021/10/12 04:58:45;;;;;;;0.68;0.68;;;3.30;99.90;;;;;;5032737;28;20275;-69
2021/10/12 05:01:11;;;;;;;0.90;0.90;;;3.20;99.90;;;;;;5033840;28;20218;-70
2021/10/12 05:03:37;;;;;;;0.70;0.70;;;3.10;99.90;;;;;;5032268;28;20257;-70
2021/10/12 05:06:02;;;;;;;0.60;0.60;;;3.00;99.90;;;;;;5033986;28;20239;-70
2021/10/12 05:08:28;;;;;;;0.52;0.52;;;3.00;99.90;;;;;;5033767;28;20535;-70
2021/10/12 05:10:53;;;;;;;0.70;0.70;;;3.00;99.90;;;;;;5032655;28;20217;-69
2021/10/12 05:13:19;;;;;;;0.70;0.70;;;3.10;99.90;;;;;;5032434;28;20202;-70
2021/10/12 05:15:48;;;;;;;0.50;0.50;;;3.10;99.90;;;;;;5033940;28;20209;-70
2021/10/12 05:18:23;;;;;;;0.63;0.63;;;3.10;99.90;;;;;;5015738;28;20303;-70
2021/10/12 05:20:49;;;;;;;0.60;0.60;;;3.00;99.90;;;;;;5033612;28;20202;-70
2021/10/12 05:23:15;;;;;;;0.68;0.68;;;3.00;99.90;;;;;;5021191;28;20209;-70
2021/10/12 05:25:44;;;;;;;0.70;0.70;;;3.00;99.90;;;;;;5032259;28;20198;-70
2021/10/12 05:28:10;;;;;;;0.70;0.70;;;2.90;99.90;;;;;;5033605;28;20195;-69
2021/10/12 05:30:40;;;;;;;0.50;0.50;;;3.00;99.90;;;;;;5032087;28;20211;-69
2021/10/12 05:33:12;;;;;;;0.65;0.65;;;3.00;99.90;;;;;;5032302;28;20198;-69
2021/10/12 05:35:38;;;;;;;0.60;0.60;;;3.00;99.90;;;;;;5033055;28;20731;-69
2021/10/12 05:38:03;;;;;;;0.57;0.57;;;2.90;99.90;;;;;;5031914;28;20202;-69
2021/10/12 05:40:29;;;;;;;0.57;0.57;;;2.80;99.90;;;;;;5015268;28;20251;-71
2021/10/12 05:42:55;;;;;;;0.60;0.60;;;2.90;99.90;;;;;;5031487;28;20194;-70
2021/10/12 05:45:21;;;;;;;0.60;0.60;;;2.90;99.90;;;;;;5015339;28;20780;-69
2021/10/12 05:47:46;;;;;;;0.70;0.70;;;2.80;99.90;;;;;;5048004;28;20213;-70
2021/10/12 05:50:12;;;;;;;0.70;0.70;;;2.90;99.90;;;;;;5032168;28;20202;-69
2021/10/12 05:52:39;;;;;;;0.60;0.60;;;3.00;99.90;;;;;;5045806;28;20218;-70
2021/10/12 05:55:12;;;;;;;0.60;0.60;;;2.90;99.90;;;;;;5033003;28;20202;-70
2021/10/12 05:58:06;;;;;;;0.60;0.60;;;2.90;99.90;;;;;;5031600;28;20210;-71
2021/10/12 06:00:32;;;;;;;0.70;0.70;;;2.90;99.90;;;;;;5030230;28;20574;-70
2021/10/12 06:02:58;;;;;;;0.65;0.65;;;2.90;99.90;;;;;;5039980;28;20222;-70
2021/10/12 06:05:23;;;;;;;0.60;0.60;;;3.00;99.90;;;;;;5035567;28;20214;-72
2021/10/12 06:07:49;;;;;;;0.65;0.65;;;3.10;99.90;;;;;;5052777;28;20210;-69
2021/10/12 06:10:15;;;;;;;0.60;0.60;;;3.20;99.90;;;;;;5036322;28;20270;-70
2021/10/12 06:12:40;;;;;;;0.60;0.60;;;3.20;99.90;;;;;;5048741;28;20213;-70
2021/10/12 06:15:06;;;;;;;0.60;0.60;;;3.30;99.90;;;;;;5050100;28;20216;-70
2021/10/12 06:17:32;;;;;;;0.60;0.60;;;3.40;99.90;;;;;;5050879;28;20288;-70
2021/10/12 06:19:57;;;;;;;0.60;0.60;;;3.40;99.90;;;;;;5049979;28;20197;-70
2021/10/12 06:22:23;;;;;;;0.60;0.60;;;3.40;99.90;;;;;;5040084;28;20218;-70
2021/10/12 06:24:49;;;;;;;0.63;0.63;;;3.50;99.90;;;;;;5044256;28;20254;-70
2021/10/12 06:27:15;;;;;;;0.70;0.70;;;3.60;99.90;;;;;;5049660;28;20200;-70
2021/10/12 06:29:40;;;;;;;0.60;0.60;;;3.70;99.90;;;;;;5052050;28;20666;-70
2021/10/12 06:32:06;;;;;;;0.60;0.60;;;3.80;99.90;;;;;;5045096;28;20689;-70
2021/10/12 06:34:32;;;;;;;0.60;0.60;;;4.00;99.90;;;;;;5040259;28;20210;-70
2021/10/12 06:36:57;;;;;;;0.60;0.60;;;4.00;99.90;;;;;;5050598;28;20202;-70
2021/10/12 06:39:23;;;;;;;0.65;0.65;;;4.10;99.90;;;;;;5050575;28;20213;-70
2021/10/12 06:41:49;;;;;;;0.60;0.60;;;4.10;99.90;;;;;;5047465;28;20210;-69
2021/10/12 06:44:14;;;;;;;0.60;0.60;;;4.10;99.90;;;;;;5037948;28;20197;-70
2021/10/12 06:46:40;;;;;;;0.60;0.60;;;4.20;99.90;;;;;;5049579;28;20545;-69
2021/10/12 06:49:06;;;;;;;0.68;0.68;;;4.20;99.90;;;;;;5050600;28;20614;-70
2021/10/12 06:51:31;;;;;;;0.55;0.55;;;4.30;99.90;;;;;;5051701;28;20201;-70
2021/10/12 06:53:57;;;;;;;0.70;0.70;;;4.30;99.90;;;;;;5048335;28;20236;-70
2021/10/12 06:56:23;;;;;;;0.60;0.60;;;4.50;99.90;;;;;;5050646;28;20264;-70
2021/10/12 06:58:49;;;;;;;0.57;0.57;;;4.50;99.90;;;;;;5052063;28;20292;-69
2021/10/12 07:01:14;;;;;;;0.63;0.63;;;4.50;99.90;;;;;;5050881;28;20207;-70
2021/10/12 07:03:40;;;;;;;0.65;0.65;;;4.60;99.90;;;;;;5051436;28;20302;-70
2021/10/12 07:06:05;;;;;;;0.70;0.70;;;4.70;99.90;;;;;;5047027;28;20265;-70
2021/10/12 07:08:31;;;;;;;0.50;0.50;;;4.70;99.90;;;;;;5048048;28;20210;-70
2021/10/12 07:10:57;;;;;;;0.80;0.80;;;4.70;99.90;;;;;;5037182;28;20217;-70
2021/10/12 07:13:32;;;;;;;0.60;0.60;;;4.70;99.90;;;;;;5030197;28;20216;-70
2021/10/12 07:15:58;;;;;;;0.60;0.60;;;4.70;99.90;;;;;;5023761;28;20209;-70
2021/10/12 07:18:24;;;;;;;0.73;0.73;;;4.80;99.90;;;;;;5030441;28;20250;-70
2021/10/12 07:20:50;;;;;;;0.50;0.50;;;4.80;99.90;;;;;;5042958;28;20300;-70
2021/10/12 07:23:19;;;;;;;0.73;0.73;;;4.90;99.90;;;;;;5048030;28;20237;-70
2021/10/12 07:25:45;;;;;;;0.68;0.68;;;4.90;99.90;;;;;;5039829;28;20289;-73
2021/10/12 07:28:11;;;;;;;0.50;0.50;;;5.00;99.90;;;;;;5040141;28;20302;-70
2021/10/12 07:30:37;;;;;;;0.70;0.70;;;5.20;99.90;;;;;;5047881;28;20206;-70
2021/10/12 07:33:03;;;;;;;0.50;0.50;;;5.30;99.90;;;;;;5048090;28;20207;-70
2021/10/12 07:35:29;;;;;;;0.60;0.60;;;5.30;99.90;;;;;;5042940;28;20259;-71
2021/10/12 07:37:57;;;;;;;0.60;0.60;;;5.40;99.90;;;;;;5031442;28;20201;-71
2021/10/12 07:40:23;;;;;;;0.60;0.60;;;5.50;99.90;;;;;;5033067;28;20837;-71
2021/10/12 07:42:49;;;;;;;0.70;0.70;;;5.60;99.90;;;;;;5046928;28;20197;-70
2021/10/12 07:45:15;;;;;;;0.50;0.50;;;5.70;99.90;;;;;;5028547;28;20285;-70
2021/10/12 07:47:41;;;;;;;0.50;0.50;;;5.80;99.90;;;;;;5042158;28;20202;-71
2021/10/12 07:50:07;;;;;;;0.60;0.60;;;5.90;99.90;;;;;;5031713;28;20252;-71
2021/10/12 07:52:33;;;;;;;0.52;0.52;;;6.10;99.90;;;;;;5030043;28;20213;-71
2021/10/12 07:55:44;;;;;;;0.60;0.60;;;6.20;99.90;;;;;;5048883;28;20575;-71
2021/10/12 07:57:48;;;;;;;0.60;0.60;;;6.40;99.90;;;;;;5021868;28;20218;-71
2021/10/12 08:00:14;;;;;;;0.70;0.70;;;6.60;99.90;;;;;;5049173;28;20624;-71
2021/10/12 08:02:39;;;;;;;0.45;0.45;;;6.80;99.90;;;;;;5048432;28;20685;-71
2021/10/12 08:05:05;;;;;;;0.68;0.68;;;6.90;99.90;;;;;;5032450;28;20207;-70
2021/10/12 08:07:31;;;;;;;0.50;0.50;;;6.90;99.90;;;;;;5028630;28;20238;-70
2021/10/12 08:09:58;;;;;;;0.50;0.50;;;7.00;99.90;;;;;;5024182;28;20623;-71
2021/10/12 08:12:24;;;;;;;0.52;0.52;;;7.10;99.90;;;;;;5040907;28;20261;-72
2021/10/12 08:14:57;;;;;;;0.40;0.40;;;7.10;99.90;;;;;;5035490;28;20242;-69
2021/10/12 08:17:23;;;;;;;0.60;0.60;;;7.20;99.90;;;;;;5042836;28;20205;-70
2021/10/12 08:19:49;;;;;;;0.70;0.70;;;7.20;99.90;;;;;;5038010;28;20214;-70
2021/10/12 08:22:15;;;;;;;0.60;0.60;;;7.30;99.90;;;;;;5029770;28;20317;-70
2021/10/12 08:24:41;;;;;;;0.60;0.60;;;7.40;99.90;;;;;;5038359;28;20205;-70
2021/10/12 08:27:07;;;;;;;0.60;0.60;;;7.60;99.90;;;;;;5050737;28;20201;-70
2021/10/12 08:29:33;;;;;;;0.68;0.68;;;7.60;99.90;;;;;;5050975;28;20746;-71
2021/10/12 08:31:59;;;;;;;0.60;0.60;;;7.80;99.90;;;;;;5027598;28;20198;-71
2021/10/12 08:34:24;;;;;;;0.55;0.55;;;7.90;99.90;;;;;;5038359;28;20210;-71
2021/10/12 08:36:50;;;;;;;0.70;0.70;;;7.90;99.90;;;;;;5022442;28;20202;-71
2021/10/12 08:39:16;;;;;;;0.60;0.60;;;7.90;99.90;;;;;;5036360;28;20748;-71
2021/10/12 08:41:56;;;;;;;0.63;0.63;;;7.90;99.90;;;;;;5050974;28;20205;-71
2021/10/12 08:44:21;;;;;;;0.50;0.50;;;7.90;99.90;;;;;;5035630;28;20205;-71
2021/10/12 08:46:48;;;;;;;0.70;0.70;;;7.90;99.90;;;;;;5050863;28;20206;-71
2021/10/12 08:49:14;;;;;;;0.60;0.60;;;7.80;99.90;;;;;;5032158;28;20207;-70
2021/10/12 08:51:43;;;;;;;0.60;0.60;;;7.90;99.90;;;;;;5051879;28;20549;-71
2021/10/12 08:54:11;;;;;;;0.65;0.65;;;8.10;99.90;;;;;;5051094;28;20216;-71
2021/10/12 08:56:38;;;;;;;0.52;0.52;;;8.30;99.90;;;;;;5034292;28;20210;-71
2021/10/12 08:59:03;;;;;;;0.50;0.50;;;8.40;99.90;;;;;;5050779;28;20680;-71
2021/10/12 09:01:31;;;;;;;0.60;0.60;;;8.50;99.90;;;;;;5035460;28;20208;-70
2021/10/12 09:06:30;;;;;;;0.50;0.50;;;8.50;99.90;;;;;;5038766;28;20216;-70
2021/10/12 09:09:05;;;;;;;0.63;0.63;;;8.50;99.90;;;;;;5050119;28;20259;-70
2021/10/12 09:11:33;;;;;;;0.63;0.63;;;8.50;99.90;;;;;;5052595;28;20567;-70
2021/10/12 09:14:04;;;;;;;0.60;0.60;;;8.70;99.90;;;;;;5023076;28;20210;-70
2021/10/12 09:16:42;;;;;;;0.70;0.70;;;8.80;99.90;;;;;;5047391;28;20204;-70
2021/10/12 09:19:16;;;;;;;0.60;0.60;;;8.90;99.90;;;;;;5038393;28;20615;-70
2021/10/12 09:21:47;;;;;;;0.80;0.73;;;9.10;99.90;;;;;;5032056;28;20219;-70
2021/10/12 09:24:23;;;;;;;0.50;0.50;;;9.20;99.90;;;;;;5052247;28;20205;-70
2021/10/12 09:26:59;;;;;;;0.60;0.60;;;9.40;99.90;;;;;;5035781;28;20201;-71
2021/10/12 09:32:33;;;;;;;0.60;0.60;;;9.70;99.90;;;;;;4999301;28;20257;-71
2021/10/12 09:35:02;;;;;;;0.52;0.52;;;9.80;99.90;;;;;;5051633;28;20755;-70
2021/10/12 09:37:28;;;;;;;0.40;0.40;;;9.90;99.90;;;;;;5035424;28;20661;-70
2021/10/12 09:39:54;;;;;;;1.05;0.80;;;10.00;99.90;;;;;;5050550;28;20288;-70
2021/10/12 09:42:21;;;;;;;0.60;0.60;;;9.90;99.90;;;;;;5037811;28;20202;-70
2021/10/12 09:44:58;;;;;;;0.50;0.50;;;9.80;99.90;;;;;;5048476;28;20288;-70
2021/10/12 09:47:25;;;;;;;0.60;0.60;;;9.80;99.90;;;;;;5033800;28;20208;-70
2021/10/12 09:50:06;;;;;;;0.55;0.55;;;10.10;99.90;;;;;;5052060;28;20562;-70
2021/10/12 09:52:37;;;;;;;0.70;0.70;;;10.20;99.90;;;;;;5050496;28;20209;-70
2021/10/12 09:55:03;;;;;;;0.50;0.50;;;10.20;99.90;;;;;;5052016;28;20247;-70
2021/10/12 09:57:30;;;;;;;0.50;0.50;;;10.40;99.90;;;;;;5051783;28;20232;-69
2021/10/12 09:59:57;;;;;;;1.65;0.88;;;10.50;99.90;;;;;;5041012;28;20546;-69
2021/10/12 10:02:24;;;;;;;0.60;0.60;;;10.60;99.90;;;;;;5044382;28;20316;-70
2021/10/12 10:04:52;;;;;;;0.57;0.57;;;10.60;99.90;;;;;;5042805;28;20202;-69
2021/10/12 10:07:24;;;;;;;0.50;0.50;;;10.50;99.90;;;;;;5045723;28;20216;-69
2021/10/12 10:09:54;;;;;;;0.70;0.70;;;10.70;99.90;;;;;;5052769;28;20197;-69
2021/10/12 10:12:21;;;;;;;0.50;0.50;;;10.60;99.90;;;;;;5051289;28;20220;-70
2021/10/12 10:14:46;;;;;;;0.60;0.60;;;10.60;99.90;;;;;;5034612;28;20206;-69
2021/10/12 10:17:14;;;;;;;0.50;0.50;;;10.60;99.90;;;;;;5044999;28;20783;-69
2021/10/12 10:19:42;;;;;;;0.60;0.60;;;10.70;99.90;;;;;;5021336;28;20625;-70
2021/10/12 10:22:08;;;;;;;0.60;0.60;;;10.90;99.90;;;;;;5028632;28;20210;-71
2021/10/12 10:24:37;;;;;;;0.60;0.60;;;11.20;99.90;;;;;;5037488;28;20201;-70
2021/10/12 10:27:07;;;;;;;0.60;0.60;;;11.40;99.90;;;;;;5034457;28;20626;-70
2021/10/12 10:29:37;;;;;;;0.57;0.57;;;11.40;99.90;;;;;;5052463;28;20201;-70
2021/10/12 10:32:17;;;;;;;0.60;0.60;;;11.60;99.90;;;;;;5052510;28;20212;-70
2021/10/12 10:34:56;;;;;;;0.60;0.60;;;11.70;99.90;;;;;;5031975;28;20197;-70
2021/10/12 10:37:25;;;;;;;0.50;0.50;;;11.70;99.90;;;;;;5050556;28;20750;-70
2021/10/12 10:40:06;;;;;;;0.60;0.60;;;11.70;99.90;;;;;;5049932;28;20198;-70
2021/10/12 10:42:41;;;;;;;0.60;0.60;;;11.70;99.90;;;;;;5049478;28;20201;-70
2021/10/12 10:45:08;;;;;;;0.60;0.60;;;11.50;99.90;;;;;;5046220;28;20264;-70
2021/10/12 10:47:46;;;;;;;0.60;0.60;;;11.40;99.90;;;;;;5034426;28;20201;-70
2021/10/12 10:50:29;;;;;;;0.50;0.50;;;11.60;99.90;;;;;;5035541;28;20232;-70
2021/10/12 10:52:59;;;;;;;0.60;0.60;;;11.60;99.90;;;;;;5038803;28;20738;-70
2021/10/12 10:55:31;;;;;;;0.57;0.57;;;12.00;99.90;;;;;;5051694;28;20259;-70
2021/10/12 10:58:14;;;;;;;0.60;0.60;;;12.10;99.90;;;;;;5035119;28;20737;-70
2021/10/12 11:00:42;;;;;;;0.60;0.60;;;12.20;99.90;;;;;;5051415;28;20212;-70
2021/10/12 11:03:28;;;;;;;0.50;0.50;;;12.10;99.90;;;;;;5030346;28;20705;-70
2021/10/12 11:05:54;;;;;;;0.50;0.50;;;12.00;99.90;;;;;;5031938;28;20719;-70
2021/10/12 11:08:22;;;;;;;0.60;0.60;;;11.90;99.90;;;;;;5026122;28;20210;-70
2021/10/12 11:11:02;;;;;;;0.50;0.50;;;11.70;99.90;;;;;;5018115;28;20287;-70
2021/10/12 11:13:37;;;;;;;0.70;0.70;;;11.70;99.90;;;;;;5029153;28;20198;-70
2021/10/12 11:16:08;;;;;;;0.60;0.60;;;11.80;99.90;;;;;;5029469;28;20233;-70
2021/10/12 11:18:36;;;;;;;0.57;0.57;;;11.80;99.90;;;;;;5030324;28;20205;-70
2021/10/12 11:21:07;;;;;;;0.60;0.60;;;12.20;99.90;;;;;;5025855;28;20230;-70
2021/10/12 11:23:39;;;;;;;0.60;0.60;;;12.40;99.90;;;;;;5017594;28;20242;-70
2021/10/12 11:26:14;;;;;;;0.60;0.60;;;12.60;99.90;;;;;;5029061;28;20218;-70
2021/10/12 11:28:42;;;;;;;0.60;0.60;;;12.40;99.90;;;;;;5030195;28;20233;-70
2021/10/12 11:31:10;;;;;;;0.50;0.50;;;12.20;99.90;;;;;;5031645;28;20575;-70
2021/10/12 11:33:45;;;;;;;0.50;0.50;;;12.40;99.90;;;;;;5029074;28;20572;-70
2021/10/12 11:36:14;;;;;;;0.60;0.60;;;12.60;99.90;;;;;;5030162;28;20206;-71
2021/10/12 11:38:52;;;;;;;0.52;0.52;;;12.60;99.90;;;;;;5030266;28;20238;-70
2021/10/12 11:41:22;;;;;;;0.52;0.52;;;12.20;99.90;;;;;;5028779;28;20209;-70
2021/10/12 11:43:49;;;;;;;0.60;0.60;;;12.30;99.90;;;;;;5029056;28;20194;-70
2021/10/12 11:46:43;;;;;;;0.40;0.40;;;12.20;99.90;;;;;;5030206;28;20204;-70
2021/10/12 11:49:11;;;;;;;0.60;0.60;;;12.20;99.90;;;;;;5026708;28;20289;-70
2021/10/12 11:51:38;;;;;;;0.70;0.70;;;12.40;99.90;;;;;;5016733;28;20209;-70
2021/10/12 11:54:04;;;;;;;0.50;0.50;;;12.30;99.90;;;;;;5028857;28;20205;-70
2021/10/12 11:56:33;;;;;;;0.60;0.60;;;12.50;99.90;;;;;;5030189;28;20575;-70
2021/10/12 11:59:00;;;;;;;0.40;0.40;;;12.50;99.90;;;;;;5030127;28;20199;-71
2021/10/12 12:01:35;;;;;;;0.50;0.50;;;12.60;99.90;;;;;;5032236;28;20202;-71
2021/10/12 12:04:03;;;;;;;0.50;0.50;;;13.00;99.90;;;;;;5034285;28;20251;-70
2021/10/12 12:06:31;;;;;;;0.60;0.60;;;13.10;99.90;;;;;;5053246;28;20197;-70
2021/10/12 12:08:59;;;;;;;0.50;0.50;;;12.80;99.90;;;;;;5055229;28;20668;-70
2021/10/12 12:11:27;;;;;;;0.50;0.50;;;12.50;99.90;;;;;;5054074;28;20669;-70
2021/10/12 12:13:54;;;;;;;0.50;0.50;;;12.40;99.90;;;;;;5055399;28;20272;-70
2021/10/12 12:16:21;;;;;;;0.50;0.50;;;12.50;99.90;;;;;;5048534;28;20691;-70
2021/10/12 12:18:47;;;;;;;0.50;0.50;;;12.70;99.90;;;;;;5054961;28;20212;-70
2021/10/12 12:21:14;;;;;;;0.60;0.60;;;12.80;99.90;;;;;;5053291;28;20712;-71
2021/10/12 12:23:41;;;;;;;0.60;0.60;;;12.50;99.90;;;;;;5054691;28;20209;-70
2021/10/12 12:26:12;;;;;;;0.57;0.57;;;12.50;99.90;;;;;;5054770;28;20197;-71
2021/10/12 12:28:39;;;;;;;0.50;0.50;;;12.50;99.90;;;;;;5053036;28;20201;-70
2021/10/12 12:31:27;;;;;;;0.60;0.60;;;12.40;99.90;;;;;;5054753;28;20198;-70
2021/10/12 12:33:55;;;;;;;0.47;0.47;;;12.30;99.90;;;;;;5053395;28;20255;-70
2021/10/12 12:36:35;;;;;;;0.43;0.43;;;12.20;99.90;;;;;;5054196;28;20194;-70
2021/10/12 12:39:08;;;;;;;0.47;0.47;;;12.30;99.90;;;;;;5054358;28;20723;-70
2021/10/12 12:41:39;;;;;;;0.50;0.50;;;12.40;99.90;;;;;;5054298;28;20213;-70
2021/10/12 12:44:04;;;;;;;0.50;0.50;;;12.70;99.90;;;;;;5053064;28;20212;-70
2021/10/12 12:46:30;;;;;;;0.60;0.60;;;12.60;99.90;;;;;;5054164;28;20205;-70
2021/10/12 12:49:09;;;;;;;0.50;0.50;;;12.50;99.90;;;;;;5035447;28;20252;-70
2021/10/12 12:51:38;;;;;;;0.52;0.52;;;12.30;99.90;;;;;;5054029;28;20205;-70
2021/10/12 12:54:05;;;;;;;0.60;0.60;;;12.10;99.90;;;;;;5035955;28;20209;-70
2021/10/12 12:56:37;;;;;;;0.50;0.50;;;11.80;99.90;;;;;;5054003;28;20564;-71
2021/10/12 12:59:09;;;;;;;0.50;0.50;;;11.50;99.90;;;;;;5052821;28;20698;-70
2021/10/12 13:01:35;;;;;;;0.60;0.60;;;11.50;99.90;;;;;;5052366;28;20292;-70
2021/10/12 13:04:02;;;;;;;0.60;0.60;;;11.40;99.90;;;;;;5053821;28;20225;-71